sensor_id;sensor_type;location;lat;lon;timestamp;P1;durP1;ratioP1;P2;durP2;ratioP2
42192;SDS011;52467;40.114;18.306;2023-05-07T00:02:02;13.18;;;7.38;;
42192;SDS011;52467;40.114;18.306;2023-05-07T00:04:30;14.30;;;7.57;;
42192;SDS011;52467;40.114;18.306;2023-05-07T00:07:03;13.20;;;8.27;;
42192;SDS011;52467;40.114;18.306;2023-05-07T00:09:30;12.45;;;7.03;;
42192;SDS011;52467;40.114;18.306;2023-05-07T00:11:57;10.43;;;7.20;;
42192;SDS011;52467;40.114;18.306;2023-05-07T00:14:25;14.27;;;7.53;;
42192;SDS011;52467;40.114;18.306;2023-05-07T00:16:53;10.77;;;6.97;;
42192;SDS011;52467;40.114;18.306;2023-05-07T00:19:20;11.38;;;7.13;;
42192;SDS011;52467;40.114;18.306;2023-05-07T00:21:48;12.70;;;6.68;;
42192;SDS011;52467;40.114;18.306;2023-05-07T00:24:15;16.42;;;7.75;;
42192;SDS011;52467;40.114;18.306;2023-05-07T00:26:42;12.30;;;7.03;;
42192;SDS011;52467;40.114;18.306;2023-05-07T00:29:10;10.98;;;6.78;;
42192;SDS011;52467;40.114;18.306;2023-05-07T00:31:37;13.65;;;6.88;;
42192;SDS011;52467;40.114;18.306;2023-05-07T00:34:05;12.48;;;7.43;;
42192;SDS011;52467;40.114;18.306;2023-05-07T00:36:32;14.45;;;7.22;;
42192;SDS011;52467;40.114;18.306;2023-05-07T00:39:00;11.98;;;7.15;;
42192;SDS011;52467;40.114;18.306;2023-05-07T00:41:29;11.38;;;7.00;;
42192;SDS011;52467;40.114;18.306;2023-05-07T00:43:57;12.80;;;7.07;;
42192;SDS011;52467;40.114;18.306;2023-05-07T00:46:25;11.02;;;6.88;;
42192;SDS011;52467;40.114;18.306;2023-05-07T00:48:52;15.95;;;7.00;;
42192;SDS011;52467;40.114;18.306;2023-05-07T00:51:20;11.30;;;6.57;;
42192;SDS011;52467;40.114;18.306;2023-05-07T00:53:48;10.48;;;6.80;;
42192;SDS011;52467;40.114;18.306;2023-05-07T00:56:15;11.90;;;6.78;;
42192;SDS011;52467;40.114;18.306;2023-05-07T00:58:42;9.95;;;6.72;;
42192;SDS011;52467;40.114;18.306;2023-05-07T01:01:10;10.93;;;6.43;;
42192;SDS011;52467;40.114;18.306;2023-05-07T01:03:38;11.85;;;6.88;;
42192;SDS011;52467;40.114;18.306;2023-05-07T01:06:05;13.88;;;6.97;;
42192;SDS011;52467;40.114;18.306;2023-05-07T01:08:33;11.27;;;7.00;;
42192;SDS011;52467;40.114;18.306;2023-05-07T01:11:01;14.65;;;7.00;;
42192;SDS011;52467;40.114;18.306;2023-05-07T01:13:30;12.63;;;6.60;;
42192;SDS011;52467;40.114;18.306;2023-05-07T01:15:57;13.00;;;6.72;;
42192;SDS011;52467;40.114;18.306;2023-05-07T01:18:25;13.68;;;7.22;;
42192;SDS011;52467;40.114;18.306;2023-05-07T01:20:53;11.37;;;6.67;;
42192;SDS011;52467;40.114;18.306;2023-05-07T01:23:23;15.35;;;6.68;;
42192;SDS011;52467;40.114;18.306;2023-05-07T01:25:54;12.63;;;6.97;;
42192;SDS011;52467;40.114;18.306;2023-05-07T01:28:24;12.10;;;7.10;;
42192;SDS011;52467;40.114;18.306;2023-05-07T01:30:56;13.68;;;7.50;;
42192;SDS011;52467;40.114;18.306;2023-05-07T01:33:29;12.90;;;7.20;;
42192;SDS011;52467;40.114;18.306;2023-05-07T01:36:00;12.20;;;7.60;;
42192;SDS011;52467;40.114;18.306;2023-05-07T01:38:30;13.88;;;7.70;;
42192;SDS011;52467;40.114;18.306;2023-05-07T01:40:58;11.88;;;7.40;;
42192;SDS011;52467;40.114;18.306;2023-05-07T01:43:25;16.00;;;8.10;;
42192;SDS011;52467;40.114;18.306;2023-05-07T01:45:53;13.13;;;7.73;;
42192;SDS011;52467;40.114;18.306;2023-05-07T01:48:20;14.00;;;7.88;;
42192;SDS011;52467;40.114;18.306;2023-05-07T01:50:48;14.87;;;7.93;;
42192;SDS011;52467;40.114;18.306;2023-05-07T01:53:16;15.18;;;8.15;;
42192;SDS011;52467;40.114;18.306;2023-05-07T01:55:43;13.60;;;7.80;;
42192;SDS011;52467;40.114;18.306;2023-05-07T01:58:12;14.48;;;8.63;;
42192;SDS011;52467;40.114;18.306;2023-05-07T02:00:39;15.25;;;8.60;;
42192;SDS011;52467;40.114;18.306;2023-05-07T02:03:08;14.23;;;7.70;;
42192;SDS011;52467;40.114;18.306;2023-05-07T02:05:50;15.63;;;8.98;;
42192;SDS011;52467;40.114;18.306;2023-05-07T02:08:28;14.20;;;7.18;;
42192;SDS011;52467;40.114;18.306;2023-05-07T02:10:56;17.30;;;9.27;;
42192;SDS011;52467;40.114;18.306;2023-05-07T02:13:25;16.77;;;9.68;;
42192;SDS011;52467;40.114;18.306;2023-05-07T02:15:55;13.90;;;8.35;;
42192;SDS011;52467;40.114;18.306;2023-05-07T02:18:24;16.02;;;8.25;;
42192;SDS011;52467;40.114;18.306;2023-05-07T02:20:52;16.45;;;8.45;;
42192;SDS011;52467;40.114;18.306;2023-05-07T02:23:19;14.70;;;8.60;;
42192;SDS011;52467;40.114;18.306;2023-05-07T02:25:47;14.00;;;8.65;;
42192;SDS011;52467;40.114;18.306;2023-05-07T02:28:14;13.65;;;8.05;;
42192;SDS011;52467;40.114;18.306;2023-05-07T02:30:57;14.18;;;8.55;;
42192;SDS011;52467;40.114;18.306;2023-05-07T02:33:28;18.73;;;8.20;;
42192;SDS011;52467;40.114;18.306;2023-05-07T02:36:05;16.25;;;8.30;;
42192;SDS011;52467;40.114;18.306;2023-05-07T02:38:42;16.10;;;8.82;;
42192;SDS011;52467;40.114;18.306;2023-05-07T02:41:10;14.02;;;8.23;;
42192;SDS011;52467;40.114;18.306;2023-05-07T02:43:37;14.18;;;7.80;;
42192;SDS011;52467;40.114;18.306;2023-05-07T02:46:05;13.20;;;8.48;;
42192;SDS011;52467;40.114;18.306;2023-05-07T02:48:37;12.18;;;8.25;;
42192;SDS011;52467;40.114;18.306;2023-05-07T02:51:04;16.20;;;8.23;;
42192;SDS011;52467;40.114;18.306;2023-05-07T02:53:34;14.45;;;8.40;;
42192;SDS011;52467;40.114;18.306;2023-05-07T02:56:01;13.18;;;8.63;;
42192;SDS011;52467;40.114;18.306;2023-05-07T02:58:29;16.07;;;8.90;;
42192;SDS011;52467;40.114;18.306;2023-05-07T03:00:58;14.13;;;8.67;;
42192;SDS011;52467;40.114;18.306;2023-05-07T03:03:45;14.52;;;8.90;;
42192;SDS011;52467;40.114;18.306;2023-05-07T03:06:12;15.13;;;8.80;;
42192;SDS011;52467;40.114;18.306;2023-05-07T03:08:40;16.02;;;8.43;;
42192;SDS011;52467;40.114;18.306;2023-05-07T03:11:07;14.55;;;9.35;;
42192;SDS011;52467;40.114;18.306;2023-05-07T03:13:35;14.25;;;8.80;;
42192;SDS011;52467;40.114;18.306;2023-05-07T03:16:03;14.63;;;8.90;;
42192;SDS011;52467;40.114;18.306;2023-05-07T03:18:30;15.00;;;8.80;;
42192;SDS011;52467;40.114;18.306;2023-05-07T03:20:57;14.00;;;8.27;;
42192;SDS011;52467;40.114;18.306;2023-05-07T03:23:25;15.93;;;8.60;;
42192;SDS011;52467;40.114;18.306;2023-05-07T03:25:52;13.63;;;8.17;;
42192;SDS011;52467;40.114;18.306;2023-05-07T03:28:20;14.07;;;8.20;;
42192;SDS011;52467;40.114;18.306;2023-05-07T03:30:52;16.00;;;9.00;;
42192;SDS011;52467;40.114;18.306;2023-05-07T03:33:20;18.60;;;8.70;;
42192;SDS011;52467;40.114;18.306;2023-05-07T03:35:48;12.40;;;8.07;;
42192;SDS011;52467;40.114;18.306;2023-05-07T03:38:20;15.05;;;8.52;;
42192;SDS011;52467;40.114;18.306;2023-05-07T03:40:47;12.57;;;8.30;;
42192;SDS011;52467;40.114;18.306;2023-05-07T03:43:15;13.82;;;8.23;;
42192;SDS011;52467;40.114;18.306;2023-05-07T03:45:48;13.05;;;8.20;;
42192;SDS011;52467;40.114;18.306;2023-05-07T03:48:20;12.07;;;8.52;;
42192;SDS011;52467;40.114;18.306;2023-05-07T03:50:49;14.13;;;8.05;;
42192;SDS011;52467;40.114;18.306;2023-05-07T03:53:18;16.20;;;8.10;;
42192;SDS011;52467;40.114;18.306;2023-05-07T03:55:45;15.80;;;8.10;;
42192;SDS011;52467;40.114;18.306;2023-05-07T03:58:12;15.10;;;8.07;;
42192;SDS011;52467;40.114;18.306;2023-05-07T04:00:40;11.20;;;7.28;;
42192;SDS011;52467;40.114;18.306;2023-05-07T04:03:27;15.40;;;8.55;;
42192;SDS011;52467;40.114;18.306;2023-05-07T04:05:58;14.13;;;8.20;;
42192;SDS011;52467;40.114;18.306;2023-05-07T04:08:25;11.93;;;7.93;;
42192;SDS011;52467;40.114;18.306;2023-05-07T04:10:54;12.85;;;7.55;;
42192;SDS011;52467;40.114;18.306;2023-05-07T04:13:25;11.30;;;6.78;;
42192;SDS011;52467;40.114;18.306;2023-05-07T04:15:54;11.93;;;6.70;;
42192;SDS011;52467;40.114;18.306;2023-05-07T04:18:23;10.63;;;6.28;;
42192;SDS011;52467;40.114;18.306;2023-05-07T04:20:51;10.20;;;6.70;;
42192;SDS011;52467;40.114;18.306;2023-05-07T04:23:18;12.13;;;6.82;;
42192;SDS011;52467;40.114;18.306;2023-05-07T04:25:46;10.82;;;7.22;;
42192;SDS011;52467;40.114;18.306;2023-05-07T04:28:23;13.20;;;6.80;;
42192;SDS011;52467;40.114;18.306;2023-05-07T04:30:51;10.38;;;7.30;;
42192;SDS011;52467;40.114;18.306;2023-05-07T04:33:20;11.18;;;6.40;;
42192;SDS011;52467;40.114;18.306;2023-05-07T04:35:49;10.23;;;6.85;;
42192;SDS011;52467;40.114;18.306;2023-05-07T04:38:16;13.82;;;6.97;;
42192;SDS011;52467;40.114;18.306;2023-05-07T04:40:47;10.93;;;6.97;;
42192;SDS011;52467;40.114;18.306;2023-05-07T04:43:19;12.40;;;7.30;;
42192;SDS011;52467;40.114;18.306;2023-05-07T04:45:50;12.07;;;6.93;;
42192;SDS011;52467;40.114;18.306;2023-05-07T04:48:19;14.03;;;7.83;;
42192;SDS011;52467;40.114;18.306;2023-05-07T04:50:49;26.98;;;11.63;;
42192;SDS011;52467;40.114;18.306;2023-05-07T04:53:18;64.13;;;22.58;;
42192;SDS011;52467;40.114;18.306;2023-05-07T04:55:45;73.40;;;26.85;;
42192;SDS011;52467;40.114;18.306;2023-05-07T04:58:14;98.00;;;34.70;;
42192;SDS011;52467;40.114;18.306;2023-05-07T05:00:43;71.10;;;28.30;;
42192;SDS011;52467;40.114;18.306;2023-05-07T05:03:10;32.53;;;13.98;;
42192;SDS011;52467;40.114;18.306;2023-05-07T05:05:39;21.88;;;10.80;;
42192;SDS011;52467;40.114;18.306;2023-05-07T05:08:06;16.80;;;8.80;;
42192;SDS011;52467;40.114;18.306;2023-05-07T05:10:37;16.88;;;8.43;;
42192;SDS011;52467;40.114;18.306;2023-05-07T05:13:06;13.48;;;7.75;;
42192;SDS011;52467;40.114;18.306;2023-05-07T05:15:35;14.85;;;8.07;;
42192;SDS011;52467;40.114;18.306;2023-05-07T05:18:03;12.20;;;7.03;;
42192;SDS011;52467;40.114;18.306;2023-05-07T05:20:33;17.90;;;7.53;;
42192;SDS011;52467;40.114;18.306;2023-05-07T05:23:00;11.35;;;6.55;;
42192;SDS011;52467;40.114;18.306;2023-05-07T05:25:30;11.38;;;6.30;;
42192;SDS011;52467;40.114;18.306;2023-05-07T05:27:58;13.65;;;6.70;;
42192;SDS011;52467;40.114;18.306;2023-05-07T05:30:25;12.20;;;7.45;;
42192;SDS011;52467;40.114;18.306;2023-05-07T05:32:53;13.07;;;7.10;;
42192;SDS011;52467;40.114;18.306;2023-05-07T05:35:20;11.25;;;6.72;;
42192;SDS011;52467;40.114;18.306;2023-05-07T05:37:48;15.52;;;7.57;;
42192;SDS011;52467;40.114;18.306;2023-05-07T05:40:17;12.00;;;6.63;;
42192;SDS011;52467;40.114;18.306;2023-05-07T05:42:45;12.63;;;6.78;;
42192;SDS011;52467;40.114;18.306;2023-05-07T05:45:13;13.65;;;7.03;;
42192;SDS011;52467;40.114;18.306;2023-05-07T05:47:41;12.45;;;7.45;;
42192;SDS011;52467;40.114;18.306;2023-05-07T05:50:08;13.40;;;7.25;;
42192;SDS011;52467;40.114;18.306;2023-05-07T05:52:36;14.57;;;8.07;;
42192;SDS011;52467;40.114;18.306;2023-05-07T05:55:04;17.15;;;8.05;;
42192;SDS011;52467;40.114;18.306;2023-05-07T05:57:34;14.23;;;7.70;;
42192;SDS011;52467;40.114;18.306;2023-05-07T06:00:02;15.27;;;7.40;;
42192;SDS011;52467;40.114;18.306;2023-05-07T06:02:32;12.93;;;6.88;;
42192;SDS011;52467;40.114;18.306;2023-05-07T06:05:01;11.63;;;6.87;;
42192;SDS011;52467;40.114;18.306;2023-05-07T06:07:29;11.75;;;6.93;;
42192;SDS011;52467;40.114;18.306;2023-05-07T06:09:57;12.82;;;6.82;;
42192;SDS011;52467;40.114;18.306;2023-05-07T06:12:24;12.18;;;6.90;;
42192;SDS011;52467;40.114;18.306;2023-05-07T06:14:52;10.57;;;6.37;;
42192;SDS011;52467;40.114;18.306;2023-05-07T06:17:19;10.18;;;6.03;;
42192;SDS011;52467;40.114;18.306;2023-05-07T06:19:48;11.60;;;6.70;;
42192;SDS011;52467;40.114;18.306;2023-05-07T06:22:18;14.35;;;7.10;;
42192;SDS011;52467;40.114;18.306;2023-05-07T06:24:45;13.43;;;6.60;;
42192;SDS011;52467;40.114;18.306;2023-05-07T06:27:13;15.00;;;7.95;;
42192;SDS011;52467;40.114;18.306;2023-05-07T06:29:40;14.37;;;7.60;;
42192;SDS011;52467;40.114;18.306;2023-05-07T06:32:13;15.32;;;6.55;;
42192;SDS011;52467;40.114;18.306;2023-05-07T06:34:42;12.85;;;6.18;;
42192;SDS011;52467;40.114;18.306;2023-05-07T06:37:10;12.95;;;6.68;;
42192;SDS011;52467;40.114;18.306;2023-05-07T06:39:50;8.63;;;4.97;;
42192;SDS011;52467;40.114;18.306;2023-05-07T06:42:17;11.13;;;5.50;;
42192;SDS011;52467;40.114;18.306;2023-05-07T06:44:47;8.27;;;4.93;;
42192;SDS011;52467;40.114;18.306;2023-05-07T06:47:16;8.95;;;5.05;;
42192;SDS011;52467;40.114;18.306;2023-05-07T06:49:47;9.48;;;5.10;;
42192;SDS011;52467;40.114;18.306;2023-05-07T06:52:17;9.13;;;4.60;;
42192;SDS011;52467;40.114;18.306;2023-05-07T06:54:45;7.38;;;4.18;;
42192;SDS011;52467;40.114;18.306;2023-05-07T06:57:15;6.32;;;4.20;;
42192;SDS011;52467;40.114;18.306;2023-05-07T06:59:42;6.97;;;4.40;;
42192;SDS011;52467;40.114;18.306;2023-05-07T07:02:10;9.32;;;4.10;;
42192;SDS011;52467;40.114;18.306;2023-05-07T07:04:38;6.50;;;4.07;;
42192;SDS011;52467;40.114;18.306;2023-05-07T07:07:09;7.13;;;4.20;;
42192;SDS011;52467;40.114;18.306;2023-05-07T07:09:37;5.32;;;3.40;;
42192;SDS011;52467;40.114;18.306;2023-05-07T07:12:06;8.48;;;3.40;;
42192;SDS011;52467;40.114;18.306;2023-05-07T07:14:37;6.07;;;2.90;;
42192;SDS011;52467;40.114;18.306;2023-05-07T07:17:04;5.20;;;2.90;;
42192;SDS011;52467;40.114;18.306;2023-05-07T07:19:33;5.93;;;2.97;;
42192;SDS011;52467;40.114;18.306;2023-05-07T07:22:02;5.10;;;2.67;;
42192;SDS011;52467;40.114;18.306;2023-05-07T07:24:31;4.83;;;3.03;;
42192;SDS011;52467;40.114;18.306;2023-05-07T07:27:02;4.05;;;2.70;;
42192;SDS011;52467;40.114;18.306;2023-05-07T07:29:32;3.22;;;2.45;;
42192;SDS011;52467;40.114;18.306;2023-05-07T07:31:59;6.85;;;3.15;;
42192;SDS011;52467;40.114;18.306;2023-05-07T07:34:27;5.43;;;3.00;;
42192;SDS011;52467;40.114;18.306;2023-05-07T07:36:55;5.55;;;3.10;;
42192;SDS011;52467;40.114;18.306;2023-05-07T07:39:23;7.10;;;3.92;;
42192;SDS011;52467;40.114;18.306;2023-05-07T07:41:54;14.60;;;4.05;;
42192;SDS011;52467;40.114;18.306;2023-05-07T07:44:21;9.82;;;4.47;;
42192;SDS011;52467;40.114;18.306;2023-05-07T07:46:54;5.32;;;3.20;;
42192;SDS011;52467;40.114;18.306;2023-05-07T07:49:24;5.70;;;3.28;;
42192;SDS011;52467;40.114;18.306;2023-05-07T07:51:52;5.47;;;3.13;;
42192;SDS011;52467;40.114;18.306;2023-05-07T07:54:19;5.45;;;3.15;;
42192;SDS011;52467;40.114;18.306;2023-05-07T07:56:47;4.13;;;2.90;;
42192;SDS011;52467;40.114;18.306;2023-05-07T07:59:15;4.28;;;2.75;;
42192;SDS011;52467;40.114;18.306;2023-05-07T08:01:46;4.78;;;2.83;;
42192;SDS011;52467;40.114;18.306;2023-05-07T08:04:17;5.68;;;2.80;;
42192;SDS011;52467;40.114;18.306;2023-05-07T08:06:44;12.00;;;3.25;;
42192;SDS011;52467;40.114;18.306;2023-05-07T08:09:14;4.45;;;3.15;;
42192;SDS011;52467;40.114;18.306;2023-05-07T08:11:41;5.32;;;3.15;;
42192;SDS011;52467;40.114;18.306;2023-05-07T08:14:09;5.50;;;2.95;;
42192;SDS011;52467;40.114;18.306;2023-05-07T08:16:36;5.15;;;3.30;;
42192;SDS011;52467;40.114;18.306;2023-05-07T08:19:04;4.85;;;3.20;;
42192;SDS011;52467;40.114;18.306;2023-05-07T08:21:31;6.30;;;3.05;;
42192;SDS011;52467;40.114;18.306;2023-05-07T08:24:00;5.47;;;3.65;;
42192;SDS011;52467;40.114;18.306;2023-05-07T08:26:28;5.70;;;3.30;;
42192;SDS011;52467;40.114;18.306;2023-05-07T08:28:55;4.60;;;3.20;;
42192;SDS011;52467;40.114;18.306;2023-05-07T08:31:23;5.32;;;3.30;;
42192;SDS011;52467;40.114;18.306;2023-05-07T08:33:50;5.22;;;3.33;;
42192;SDS011;52467;40.114;18.306;2023-05-07T08:36:18;4.30;;;2.78;;
42192;SDS011;52467;40.114;18.306;2023-05-07T08:38:46;7.10;;;3.80;;
42192;SDS011;52467;40.114;18.306;2023-05-07T08:41:13;5.00;;;3.10;;
42192;SDS011;52467;40.114;18.306;2023-05-07T08:43:47;6.78;;;3.63;;
42192;SDS011;52467;40.114;18.306;2023-05-07T08:46:17;5.40;;;3.42;;
42192;SDS011;52467;40.114;18.306;2023-05-07T08:48:50;5.20;;;3.38;;
42192;SDS011;52467;40.114;18.306;2023-05-07T08:51:19;5.57;;;3.60;;
42192;SDS011;52467;40.114;18.306;2023-05-07T08:53:48;4.53;;;3.15;;
42192;SDS011;52467;40.114;18.306;2023-05-07T08:56:22;6.90;;;3.60;;
42192;SDS011;52467;40.114;18.306;2023-05-07T08:58:52;9.25;;;4.05;;
42192;SDS011;52467;40.114;18.306;2023-05-07T09:01:23;5.78;;;3.50;;
42192;SDS011;52467;40.114;18.306;2023-05-07T09:03:54;6.93;;;3.50;;
42192;SDS011;52467;40.114;18.306;2023-05-07T09:06:22;4.03;;;3.13;;
42192;SDS011;52467;40.114;18.306;2023-05-07T09:08:50;4.18;;;3.20;;
42192;SDS011;52467;40.114;18.306;2023-05-07T09:11:19;5.05;;;3.10;;
42192;SDS011;52467;40.114;18.306;2023-05-07T09:13:53;4.27;;;3.03;;
42192;SDS011;52467;40.114;18.306;2023-05-07T09:16:23;5.68;;;3.25;;
42192;SDS011;52467;40.114;18.306;2023-05-07T09:18:52;7.82;;;3.88;;
42192;SDS011;52467;40.114;18.306;2023-05-07T09:21:21;6.28;;;3.17;;
42192;SDS011;52467;40.114;18.306;2023-05-07T09:23:52;4.82;;;3.60;;
42192;SDS011;52467;40.114;18.306;2023-05-07T09:26:24;4.10;;;3.00;;
42192;SDS011;52467;40.114;18.306;2023-05-07T09:28:52;4.00;;;2.92;;
42192;SDS011;52467;40.114;18.306;2023-05-07T09:31:20;6.53;;;3.20;;
42192;SDS011;52467;40.114;18.306;2023-05-07T09:33:49;3.90;;;2.97;;
42192;SDS011;52467;40.114;18.306;2023-05-07T09:36:19;5.15;;;3.00;;
42192;SDS011;52467;40.114;18.306;2023-05-07T09:38:47;9.03;;;3.37;;
42192;SDS011;52467;40.114;18.306;2023-05-07T09:41:17;6.13;;;2.92;;
42192;SDS011;52467;40.114;18.306;2023-05-07T09:44:10;3.80;;;2.85;;
42192;SDS011;52467;40.114;18.306;2023-05-07T09:46:43;5.60;;;3.00;;
42192;SDS011;52467;40.114;18.306;2023-05-07T09:49:22;4.40;;;2.97;;
42192;SDS011;52467;40.114;18.306;2023-05-07T09:52:00;6.45;;;3.28;;
42192;SDS011;52467;40.114;18.306;2023-05-07T09:54:32;6.30;;;3.42;;
42192;SDS011;52467;40.114;18.306;2023-05-07T09:57:01;4.53;;;2.90;;
42192;SDS011;52467;40.114;18.306;2023-05-07T09:59:31;5.20;;;3.03;;
42192;SDS011;52467;40.114;18.306;2023-05-07T10:02:03;8.00;;;3.28;;
42192;SDS011;52467;40.114;18.306;2023-05-07T10:04:33;6.35;;;3.38;;
42192;SDS011;52467;40.114;18.306;2023-05-07T10:07:01;6.63;;;3.35;;
42192;SDS011;52467;40.114;18.306;2023-05-07T10:09:31;6.50;;;3.20;;
42192;SDS011;52467;40.114;18.306;2023-05-07T10:11:59;4.78;;;3.08;;
42192;SDS011;52467;40.114;18.306;2023-05-07T10:14:27;5.97;;;3.75;;
42192;SDS011;52467;40.114;18.306;2023-05-07T10:16:56;6.00;;;3.65;;
42192;SDS011;52467;40.114;18.306;2023-05-07T10:19:25;6.38;;;3.17;;
42192;SDS011;52467;40.114;18.306;2023-05-07T10:21:56;5.35;;;3.17;;
42192;SDS011;52467;40.114;18.306;2023-05-07T10:24:32;7.10;;;3.47;;
42192;SDS011;52467;40.114;18.306;2023-05-07T10:27:04;7.20;;;3.17;;
42192;SDS011;52467;40.114;18.306;2023-05-07T10:29:42;6.72;;;3.50;;
42192;SDS011;52467;40.114;18.306;2023-05-07T10:34:58;5.00;;;3.58;;
42192;SDS011;52467;40.114;18.306;2023-05-07T10:37:28;6.60;;;3.22;;
42192;SDS011;52467;40.114;18.306;2023-05-07T10:39:56;5.70;;;3.37;;
42192;SDS011;52467;40.114;18.306;2023-05-07T10:42:26;6.63;;;3.65;;
42192;SDS011;52467;40.114;18.306;2023-05-07T10:44:55;7.47;;;3.10;;
42192;SDS011;52467;40.114;18.306;2023-05-07T10:47:27;6.67;;;3.10;;
42192;SDS011;52467;40.114;18.306;2023-05-07T10:52:37;3.33;;;2.80;;
42192;SDS011;52467;40.114;18.306;2023-05-07T11:01:05;4.75;;;2.30;;
42192;SDS011;52467;40.114;18.306;2023-05-07T11:03:41;3.20;;;2.50;;
42192;SDS011;52467;40.114;18.306;2023-05-07T11:15:04;4.20;;;2.63;;
42192;SDS011;52467;40.114;18.306;2023-05-07T11:17:35;2.83;;;2.40;;
42192;SDS011;52467;40.114;18.306;2023-05-07T11:20:19;3.58;;;2.35;;
42192;SDS011;52467;40.114;18.306;2023-05-07T11:22:54;3.30;;;2.40;;
42192;SDS011;52467;40.114;18.306;2023-05-07T11:25:37;2.75;;;2.17;;
42192;SDS011;52467;40.114;18.306;2023-05-07T11:28:11;2.97;;;2.58;;
42192;SDS011;52467;40.114;18.306;2023-05-07T11:30:45;3.03;;;2.22;;
42192;SDS011;52467;40.114;18.306;2023-05-07T11:33:17;2.70;;;2.35;;
42192;SDS011;52467;40.114;18.306;2023-05-07T11:35:44;2.42;;;2.20;;
42192;SDS011;52467;40.114;18.306;2023-05-07T11:38:14;3.35;;;2.45;;
42192;SDS011;52467;40.114;18.306;2023-05-07T11:40:52;2.67;;;2.38;;
42192;SDS011;52467;40.114;18.306;2023-05-07T11:43:21;2.50;;;2.20;;
42192;SDS011;52467;40.114;18.306;2023-05-07T11:45:49;2.55;;;2.35;;
42192;SDS011;52467;40.114;18.306;2023-05-07T11:48:16;2.57;;;2.10;;
42192;SDS011;52467;40.114;18.306;2023-05-07T11:53:37;2.90;;;2.25;;
42192;SDS011;52467;40.114;18.306;2023-05-07T11:56:09;2.78;;;2.08;;
42192;SDS011;52467;40.114;18.306;2023-05-07T11:58:38;3.03;;;2.22;;
42192;SDS011;52467;40.114;18.306;2023-05-07T12:01:07;2.78;;;2.50;;
42192;SDS011;52467;40.114;18.306;2023-05-07T12:03:36;2.72;;;2.08;;
42192;SDS011;52467;40.114;18.306;2023-05-07T12:06:07;2.58;;;2.38;;
42192;SDS011;52467;40.114;18.306;2023-05-07T12:08:39;2.67;;;2.47;;
42192;SDS011;52467;40.114;18.306;2023-05-07T12:11:08;3.10;;;2.00;;
42192;SDS011;52467;40.114;18.306;2023-05-07T12:13:38;3.90;;;2.17;;
42192;SDS011;52467;40.114;18.306;2023-05-07T12:16:06;2.92;;;2.17;;
42192;SDS011;52467;40.114;18.306;2023-05-07T12:18:34;2.63;;;2.15;;
42192;SDS011;52467;40.114;18.306;2023-05-07T12:21:03;4.18;;;2.17;;
42192;SDS011;52467;40.114;18.306;2023-05-07T12:23:31;4.28;;;2.28;;
42192;SDS011;52467;40.114;18.306;2023-05-07T12:25:59;2.85;;;2.28;;
42192;SDS011;52467;40.114;18.306;2023-05-07T12:28:28;3.33;;;2.38;;
42192;SDS011;52467;40.114;18.306;2023-05-07T12:30:57;4.70;;;2.22;;
42192;SDS011;52467;40.114;18.306;2023-05-07T12:33:25;2.80;;;2.00;;
42192;SDS011;52467;40.114;18.306;2023-05-07T12:35:56;3.27;;;1.90;;
42192;SDS011;52467;40.114;18.306;2023-05-07T12:38:24;2.30;;;2.10;;
42192;SDS011;52467;40.114;18.306;2023-05-07T12:40:53;3.15;;;2.47;;
42192;SDS011;52467;40.114;18.306;2023-05-07T12:43:25;3.20;;;2.42;;
42192;SDS011;52467;40.114;18.306;2023-05-07T12:45:54;3.20;;;2.10;;
42192;SDS011;52467;40.114;18.306;2023-05-07T12:48:23;3.92;;;2.00;;
42192;SDS011;52467;40.114;18.306;2023-05-07T12:50:53;2.88;;;2.10;;
42192;SDS011;52467;40.114;18.306;2023-05-07T12:53:22;2.28;;;1.75;;
42192;SDS011;52467;40.114;18.306;2023-05-07T12:55:52;2.58;;;2.10;;
42192;SDS011;52467;40.114;18.306;2023-05-07T12:58:30;2.10;;;1.90;;
42192;SDS011;52467;40.114;18.306;2023-05-07T13:00:59;2.90;;;2.03;;
42192;SDS011;52467;40.114;18.306;2023-05-07T13:03:29;2.42;;;2.20;;
42192;SDS011;52467;40.114;18.306;2023-05-07T13:06:04;3.90;;;2.22;;
42192;SDS011;52467;40.114;18.306;2023-05-07T13:08:34;3.13;;;2.20;;
42192;SDS011;52467;40.114;18.306;2023-05-07T13:11:07;2.72;;;2.17;;
42192;SDS011;52467;40.114;18.306;2023-05-07T13:13:36;4.65;;;2.30;;
42192;SDS011;52467;40.114;18.306;2023-05-07T13:16:05;2.50;;;2.10;;
42192;SDS011;52467;40.114;18.306;2023-05-07T13:18:34;2.63;;;2.10;;
42192;SDS011;52467;40.114;18.306;2023-05-07T13:21:01;2.53;;;2.30;;
42192;SDS011;52467;40.114;18.306;2023-05-07T13:23:29;2.78;;;2.10;;
42192;SDS011;52467;40.114;18.306;2023-05-07T13:25:57;3.17;;;2.40;;
42192;SDS011;52467;40.114;18.306;2023-05-07T13:28:25;2.63;;;2.38;;
42192;SDS011;52467;40.114;18.306;2023-05-07T13:30:53;5.43;;;2.30;;
42192;SDS011;52467;40.114;18.306;2023-05-07T13:33:21;2.47;;;2.28;;
42192;SDS011;52467;40.114;18.306;2023-05-07T13:35:48;3.42;;;2.00;;
42192;SDS011;52467;40.114;18.306;2023-05-07T13:38:16;2.85;;;2.33;;
42192;SDS011;52467;40.114;18.306;2023-05-07T13:40:43;5.05;;;2.38;;
42192;SDS011;52467;40.114;18.306;2023-05-07T13:43:11;2.47;;;2.00;;
42192;SDS011;52467;40.114;18.306;2023-05-07T13:45:38;2.72;;;2.40;;
42192;SDS011;52467;40.114;18.306;2023-05-07T13:48:06;2.70;;;2.10;;
42192;SDS011;52467;40.114;18.306;2023-05-07T13:50:33;2.88;;;2.40;;
42192;SDS011;52467;40.114;18.306;2023-05-07T13:53:00;3.45;;;2.20;;
42192;SDS011;52467;40.114;18.306;2023-05-07T13:55:31;3.13;;;2.30;;
42192;SDS011;52467;40.114;18.306;2023-05-07T13:58:00;4.93;;;2.63;;
42192;SDS011;52467;40.114;18.306;2023-05-07T14:00:32;3.30;;;2.67;;
42192;SDS011;52467;40.114;18.306;2023-05-07T14:03:00;3.22;;;2.38;;
42192;SDS011;52467;40.114;18.306;2023-05-07T14:05:27;3.43;;;2.50;;
42192;SDS011;52467;40.114;18.306;2023-05-07T14:07:56;4.78;;;2.22;;
42192;SDS011;52467;40.114;18.306;2023-05-07T14:10:24;7.13;;;2.70;;
42192;SDS011;52467;40.114;18.306;2023-05-07T14:12:52;3.08;;;2.40;;
42192;SDS011;52467;40.114;18.306;2023-05-07T14:15:19;3.78;;;2.45;;
42192;SDS011;52467;40.114;18.306;2023-05-07T14:17:47;3.50;;;2.40;;
42192;SDS011;52467;40.114;18.306;2023-05-07T14:20:14;3.70;;;2.58;;
42192;SDS011;52467;40.114;18.306;2023-05-07T14:22:42;5.93;;;2.40;;
42192;SDS011;52467;40.114;18.306;2023-05-07T14:25:10;3.78;;;2.50;;
42192;SDS011;52467;40.114;18.306;2023-05-07T14:27:37;2.85;;;2.30;;
42192;SDS011;52467;40.114;18.306;2023-05-07T14:30:05;3.33;;;2.58;;
42192;SDS011;52467;40.114;18.306;2023-05-07T14:32:33;3.92;;;2.55;;
42192;SDS011;52467;40.114;18.306;2023-05-07T14:35:01;3.58;;;2.30;;
42192;SDS011;52467;40.114;18.306;2023-05-07T14:37:30;2.70;;;2.25;;
42192;SDS011;52467;40.114;18.306;2023-05-07T14:39:57;3.92;;;2.47;;
42192;SDS011;52467;40.114;18.306;2023-05-07T14:42:25;4.35;;;2.50;;
42192;SDS011;52467;40.114;18.306;2023-05-07T14:44:53;3.67;;;2.67;;
42192;SDS011;52467;40.114;18.306;2023-05-07T14:47:20;3.13;;;2.38;;
42192;SDS011;52467;40.114;18.306;2023-05-07T14:49:48;3.42;;;2.60;;
42192;SDS011;52467;40.114;18.306;2023-05-07T14:52:16;3.88;;;2.45;;
42192;SDS011;52467;40.114;18.306;2023-05-07T14:54:43;3.55;;;2.78;;
42192;SDS011;52467;40.114;18.306;2023-05-07T14:57:11;3.47;;;2.75;;
42192;SDS011;52467;40.114;18.306;2023-05-07T14:59:42;4.22;;;2.70;;
42192;SDS011;52467;40.114;18.306;2023-05-07T15:02:11;3.80;;;2.53;;
42192;SDS011;52467;40.114;18.306;2023-05-07T15:04:38;4.28;;;2.67;;